Morania No 6 — WBQ7544 — position and weather

sailwx.info

Track history (hours):
 
Tides and Currents Weather Stations Pressure Air Temp Water Temp Dewpoint Dewpoint Depression Visibility Wind Speed Wind Dir Waves Ship Positions

Morania No 6

More information available from US FCC via Universal Licensing System and Coast Guard Vessel Documentation Center.

Last reported at 2014-Jul-01 12:20 UTC. Time now 2014-Jul-24 12:18 UTC.
Position N 29°59' W 090°24'.
Warning: this ship's position is 22 days out of date.

Length 45 m; draft 8.2 m.

MMSI: 366920970.

Date/timePositionNaut miles runAvg speedWind from/ knotsBaromVisibWave heightAir tempDewpointWater temp
2014-Jul-01 12:20N 29°59' W 090°24'0 0.0
2014-Jul-01 11:33N 29°59' W 090°24'0 0.0
2014-Jul-01 10:33N 29°59' W 090°24'0 0.0
2014-Jul-01 09:33N 29°59' W 090°24'0 0.0
2014-Jul-01 08:34N 29°59' W 090°24'0 0.0
2014-Jul-01 07:34N 29°59' W 090°24'0 0.0
2014-Jul-01 06:33N 29°59' W 090°24'0 0.0
2014-Jul-01 05:33N 29°59' W 090°24'0 0.0
2014-Jul-01 04:33N 29°59' W 090°24'0 0.0
2014-Jul-01 03:33N 29°59' W 090°24'0 0.0
2014-Jul-01 02:33N 29°59' W 090°24'0 0.0
2014-Jul-01 01:33N 29°59' W 090°24'0 0.0
2014-Jul-01 00:33N 29°59' W 090°24'0 0.0
2014-Jun-30 23:34N 29°59' W 090°24'0 0.0
2014-Jun-30 22:33N 29°59' W 090°24'10 3.5
2014-Jun-30 19:33N 30°03' W 090°36'5 0.8
2014-Jun-30 12:33N 30°02' W 090°42'0 0.0
2014-Jun-30 11:34N 30°02' W 090°42'0 0.0
2014-Jun-30 10:33N 30°02' W 090°42'0 0.0
2014-Jun-30 09:33N 30°02' W 090°42'0 0.0
2014-Jun-30 08:33N 30°02' W 090°42'0 0.0
2014-Jun-30 07:33N 30°02' W 090°42'0 0.0
2014-Jun-30 06:33N 30°02' W 090°42'0 0.0
2014-Jun-30 05:33N 30°02' W 090°42'0 0.0
2014-Jun-30 04:33N 30°02' W 090°42'0 0.0
2014-Jun-30 03:33N 30°02' W 090°42'0 0.0
2014-Jun-30 02:33N 30°02' W 090°42'0 0.0
2014-Jun-30 01:33N 30°02' W 090°42'0 0.0
2014-Jun-30 00:33N 30°02' W 090°42'0 0.0
2014-Jun-29 23:33N 30°02' W 090°42'0 0.0
2014-Jun-29 22:33N 30°02' W 090°42'0 0.0
2014-Jun-29 21:33N 30°02' W 090°42'0 0.0
2014-Jun-29 20:33N 30°02' W 090°42'0 0.0
2014-Jun-29 19:33N 30°02' W 090°42'0 0.0
2014-Jun-29 18:34N 30°02' W 090°42'0 0.0
2014-Jun-29 17:31N 30°02' W 090°42'0 0.0
2014-Jun-29 16:33N 30°02' W 090°42'0 0.0
2014-Jun-29 15:33N 30°02' W 090°42'0 0.0
2014-Jun-29 14:33N 30°02' W 090°42'0 0.0
2014-Jun-29 13:33N 30°02' W 090°42'0 0.0
2014-Jun-29 12:33N 30°02' W 090°42'0 0.0
2014-Jun-29 11:33N 30°02' W 090°42'0 0.0
2014-Jun-29 10:33N 30°02' W 090°42'0 0.0
2014-Jun-29 09:33N 30°02' W 090°42'0 0.0
2014-Jun-29 08:34N 30°02' W 090°42'0 0.0
2014-Jun-29 07:34N 30°02' W 090°42'0 0.0
2014-Jun-29 06:34N 30°02' W 090°42'0 0.0
2014-Jun-29 05:34N 30°02' W 090°42'0 0.0
2014-Jun-29 04:34N 30°02' W 090°42'0 0.0
2014-Jun-29 03:33N 30°02' W 090°42'0 0.0
2014-Jun-29 02:34N 30°02' W 090°42'7 6.5
2014-Jun-29 01:33N 29°59' W 090°49'2 0.1
2014-Jun-28 06:16N 30°01' W 090°50'0 0.1
2014-Jun-28 05:34N 30°00' W 090°50'4 4.4
2014-Jun-28 04:33N 30°01' W 090°45'6 6.2
2014-Jun-28 03:33N 30°03' W 090°38'6 6.2
2014-Jun-28 02:33N 30°03' W 090°31'5 5.3
2014-Jun-28 01:33N 29°60' W 090°26'2 1.7
2014-Jun-28 00:33N 29°59' W 090°24'0 0.0
2014-Jun-27 23:33N 29°59' W 090°24'0 0.0
2014-Jun-27 22:33N 29°59' W 090°24'0 0.0
2014-Jun-27 12:34N 29°59' W 090°24'0 0.0
2014-Jun-27 11:33N 29°59' W 090°24'0 0.0
2014-Jun-27 10:33N 29°59' W 090°24'0 0.0
2014-Jun-27 09:33N 29°59' W 090°24'0 0.0
2014-Jun-27 08:33N 29°59' W 090°24'0 0.0
2014-Jun-27 07:33N 29°59' W 090°24'0 0.0
2014-Jun-27 06:33N 29°59' W 090°24'0 0.0
2014-Jun-27 05:33N 29°59' W 090°24'0 0.0
2014-Jun-27 04:33N 29°59' W 090°24'0 0.0
2014-Jun-27 03:33N 29°59' W 090°24'0 0.0
2014-Jun-27 02:33N 29°59' W 090°24'0 0.0
2014-Jun-27 01:33N 29°59' W 090°24'0 0.0
2014-Jun-27 00:34N 29°59' W 090°24'0 0.0
2014-Jun-26 23:33N 29°59' W 090°24'0 0.0
2014-Jun-26 22:33N 29°59' W 090°24'6 1.0
2014-Jun-26 16:24N 30°03' W 090°30'10 2.6
2014-Jun-26 12:33N 30°02' W 090°42'0 0.0
2014-Jun-26 11:33N 30°02' W 090°42'0 0.0
2014-Jun-26 10:33N 30°02' W 090°42'0 0.0
2014-Jun-26 09:33N 30°02' W 090°42'0 0.0
2014-Jun-26 08:33N 30°02' W 090°42'0 0.0
2014-Jun-26 07:33N 30°02' W 090°42'0 0.0
2014-Jun-26 06:34N 30°02' W 090°42'0 0.4
2014-Jun-26 05:33N 30°02' W 090°42'7 7.2
2014-Jun-26 04:33N 30°00' W 090°50'0 0.1
2014-Jun-26 03:33N 30°01' W 090°50'0 0.0
2014-Jun-25 22:29N 30°01' W 090°50'0 0.0
2014-Jun-25 14:26N 30°01' W 090°50'0 0.0
2014-Jun-25 13:31N 30°01' W 090°50'0 0.0
2014-Jun-25 12:26N 30°01' W 090°50'0 0.0
2014-Jun-25 11:13N 30°01' W 090°50'0 0.0
2014-Jun-25 10:19N 30°01' W 090°50'0 0.0
2014-Jun-25 09:29N 30°01' W 090°50'0 0.0
2014-Jun-25 08:34N 30°01' W 090°50'0 0.0
2014-Jun-25 07:32N 30°01' W 090°50'2 2.0
2014-Jun-25 06:32N 29°59' W 090°48'6 6.3
2014-Jun-25 05:33N 30°02' W 090°42'6 5.8
2014-Jun-25 04:34N 30°03' W 090°35'6 5.9
2014-Jun-25 03:34N 30°02' W 090°28'4 4.3
2014-Jun-25 02:33N 29°59' W 090°24'0 0.0
2014-Jun-25 01:33N 29°59' W 090°24'0 0.0
2014-Jun-25 00:33N 29°59' W 090°24'0 0.0
2014-Jun-24 23:34N 29°59' W 090°24'0 0.0
2014-Jun-24 22:34N 29°59' W 090°24'0 0.0
2014-Jun-24 12:08N 29°59' W 090°24'0 0.0
2014-Jun-24 11:34N 29°59' W 090°24'0 0.0
2014-Jun-24 10:33N 29°59' W 090°24'0 0.0
2014-Jun-24 09:33N 29°59' W 090°24'0 0.0
2014-Jun-24 08:33N 29°59' W 090°24'0 0.0
2014-Jun-24 07:34N 29°59' W 090°24'0 0.0
2014-Jun-24 06:33N 29°59' W 090°24'0 0.0
2014-Jun-24 05:33N 29°59' W 090°24'0 0.0
2014-Jun-24 04:33N 29°59' W 090°24'0 0.0
2014-Jun-24 03:33N 29°59' W 090°24'0 0.0
2014-Jun-24 02:33N 29°59' W 090°24'0 0.0
2014-Jun-24 01:33N 29°59' W 090°24'0 0.0
2014-Jun-24 00:33N 29°59' W 090°24'0 0.0
2014-Jun-23 23:33N 29°59' W 090°24'0 0.0
2014-Jun-23 22:33N 29°59' W 090°24'8 4.2
2014-Jun-23 20:34N 30°03' W 090°33'15 1.5
2014-Jun-23 10:33N 30°01' W 090°50'0 0.0
2014-Jun-23 09:33N 30°01' W 090°50'0 0.0
2014-Jun-23 08:33N 30°01' W 090°50'0 0.0
2014-Jun-23 07:30N 30°01' W 090°50'0 0.0
2014-Jun-23 06:33N 30°01' W 090°50'0 0.0
2014-Jun-23 05:30N 30°01' W 090°50'0 0.0
2014-Jun-23 04:33N 30°01' W 090°50'0 0.0
2014-Jun-23 03:34N 30°01' W 090°50'5 0.5
2014-Jun-22 17:33N 30°01' W 090°44'6 6.0
2014-Jun-22 16:33N 30°02' W 090°38'6 6.4
2014-Jun-22 15:33N 30°03' W 090°30'5 5.5
2014-Jun-22 14:33N 29°60' W 090°25'1 1.0
2014-Jun-22 13:33N 29°59' W 090°24'0 0.0
2014-Jun-22 12:33N 29°59' W 090°24'0 0.0
2014-Jun-22 11:33N 29°59' W 090°24'0 0.0
2014-Jun-22 10:33N 29°59' W 090°24'0 0.0
2014-Jun-22 09:33N 29°59' W 090°24'0 0.0
2014-Jun-22 08:34N 29°59' W 090°24'0 0.0
2014-Jun-22 07:33N 29°59' W 090°24'0 0.0
2014-Jun-22 06:33N 29°59' W 090°24'0 0.0
2014-Jun-22 05:33N 29°59' W 090°24'0 0.0
2014-Jun-22 04:34N 29°59' W 090°24'0 0.0
2014-Jun-22 03:33N 29°59' W 090°24'0 0.0
2014-Jun-22 02:33N 29°59' W 090°24'0 0.0
2014-Jun-22 01:34N 29°59' W 090°24'0 0.0
2014-Jun-22 00:34N 29°59' W 090°24'0 0.0
2014-Jun-21 23:33N 29°59' W 090°24'0 0.0
2014-Jun-21 21:33N 29°59' W 090°24'0 0.0
2014-Jun-21 20:33N 29°59' W 090°24'0 0.0
2014-Jun-21 19:33N 29°59' W 090°24'0 0.0
2014-Jun-21 18:33N 29°59' W 090°24'0 0.4
2014-Jun-21 17:34N 29°60' W 090°25'8 7.5
2014-Jun-21 16:33N 30°03' W 090°33'15 5.1
2014-Jun-21 13:31N 30°01' W 090°50'0 0.0
2014-Jun-21 12:33N 30°01' W 090°50'  
Track history (hours):
 
Tides and Currents Weather Stations Pressure Air Temp Water Temp Dewpoint Dewpoint Depression Visibility Wind Speed Wind Dir Waves Ship Positions

Morania No 6

More information available from US FCC via Universal Licensing System and Coast Guard Vessel Documentation Center.

Last reported at 2014-Jul-01 12:20 UTC. Time now 2014-Jul-24 12:18 UTC.
Position N 29°59' W 090°24'.
Warning: this ship's position is 22 days out of date.

Length 45 m; draft 8.2 m.

MMSI: 366920970.

Date/timePositionNaut miles runAvg speedWind from/ knotsBaromVisibWave heightAir tempDewpointWater temp
2014-Jul-01 12:20N 29°59' W 090°24'0 0.0
2014-Jul-01 11:33N 29°59' W 090°24'0 0.0
2014-Jul-01 10:33N 29°59' W 090°24'0 0.0
2014-Jul-01 09:33N 29°59' W 090°24'0 0.0
2014-Jul-01 08:34N 29°59' W 090°24'0 0.0
2014-Jul-01 07:34N 29°59' W 090°24'0 0.0
2014-Jul-01 06:33N 29°59' W 090°24'0 0.0
2014-Jul-01 05:33N 29°59' W 090°24'0 0.0
2014-Jul-01 04:33N 29°59' W 090°24'0 0.0
2014-Jul-01 03:33N 29°59' W 090°24'0 0.0
2014-Jul-01 02:33N 29°59' W 090°24'0 0.0
2014-Jul-01 01:33N 29°59' W 090°24'0 0.0
2014-Jul-01 00:33N 29°59' W 090°24'0 0.0
2014-Jun-30 23:34N 29°59' W 090°24'0 0.0
2014-Jun-30 22:33N 29°59' W 090°24'10 3.5
2014-Jun-30 19:33N 30°03' W 090°36'5 0.8
2014-Jun-30 12:33N 30°02' W 090°42'0 0.0
2014-Jun-30 11:34N 30°02' W 090°42'0 0.0
2014-Jun-30 10:33N 30°02' W 090°42'0 0.0
2014-Jun-30 09:33N 30°02' W 090°42'0 0.0
2014-Jun-30 08:33N 30°02' W 090°42'0 0.0
2014-Jun-30 07:33N 30°02' W 090°42'0 0.0
2014-Jun-30 06:33N 30°02' W 090°42'0 0.0
2014-Jun-30 05:33N 30°02' W 090°42'0 0.0
2014-Jun-30 04:33N 30°02' W 090°42'0 0.0
2014-Jun-30 03:33N 30°02' W 090°42'0 0.0
2014-Jun-30 02:33N 30°02' W 090°42'0 0.0
2014-Jun-30 01:33N 30°02' W 090°42'0 0.0
2014-Jun-30 00:33N 30°02' W 090°42'0 0.0
2014-Jun-29 23:33N 30°02' W 090°42'0 0.0
2014-Jun-29 22:33N 30°02' W 090°42'0 0.0
2014-Jun-29 21:33N 30°02' W 090°42'0 0.0
2014-Jun-29 20:33N 30°02' W 090°42'0 0.0
2014-Jun-29 19:33N 30°02' W 090°42'0 0.0
2014-Jun-29 18:34N 30°02' W 090°42'0 0.0
2014-Jun-29 17:31N 30°02' W 090°42'0 0.0
2014-Jun-29 16:33N 30°02' W 090°42'0 0.0
2014-Jun-29 15:33N 30°02' W 090°42'0 0.0
2014-Jun-29 14:33N 30°02' W 090°42'0 0.0
2014-Jun-29 13:33N 30°02' W 090°42'0 0.0
2014-Jun-29 12:33N 30°02' W 090°42'0 0.0
2014-Jun-29 11:33N 30°02' W 090°42'0 0.0
2014-Jun-29 10:33N 30°02' W 090°42'0 0.0
2014-Jun-29 09:33N 30°02' W 090°42'0 0.0
2014-Jun-29 08:34N 30°02' W 090°42'0 0.0
2014-Jun-29 07:34N 30°02' W 090°42'0 0.0
2014-Jun-29 06:34N 30°02' W 090°42'0 0.0
2014-Jun-29 05:34N 30°02' W 090°42'0 0.0
2014-Jun-29 04:34N 30°02' W 090°42'0 0.0
2014-Jun-29 03:33N 30°02' W 090°42'0 0.0
2014-Jun-29 02:34N 30°02' W 090°42'7 6.5
2014-Jun-29 01:33N 29°59' W 090°49'2 0.1
2014-Jun-28 06:16N 30°01' W 090°50'0 0.1
2014-Jun-28 05:34N 30°00' W 090°50'4 4.4
2014-Jun-28 04:33N 30°01' W 090°45'6 6.2
2014-Jun-28 03:33N 30°03' W 090°38'6 6.2
2014-Jun-28 02:33N 30°03' W 090°31'5 5.3
2014-Jun-28 01:33N 29°60' W 090°26'2 1.7
2014-Jun-28 00:33N 29°59' W 090°24'0 0.0
2014-Jun-27 23:33N 29°59' W 090°24'0 0.0
2014-Jun-27 22:33N 29°59' W 090°24'0 0.0
2014-Jun-27 12:34N 29°59' W 090°24'0 0.0
2014-Jun-27 11:33N 29°59' W 090°24'0 0.0
2014-Jun-27 10:33N 29°59' W 090°24'0 0.0
2014-Jun-27 09:33N 29°59' W 090°24'0 0.0
2014-Jun-27 08:33N 29°59' W 090°24'0 0.0
2014-Jun-27 07:33N 29°59' W 090°24'0 0.0
2014-Jun-27 06:33N 29°59' W 090°24'0 0.0
2014-Jun-27 05:33N 29°59' W 090°24'0 0.0
2014-Jun-27 04:33N 29°59' W 090°24'0 0.0
2014-Jun-27 03:33N 29°59' W 090°24'0 0.0
2014-Jun-27 02:33N 29°59' W 090°24'0 0.0
2014-Jun-27 01:33N 29°59' W 090°24'0 0.0
2014-Jun-27 00:34N 29°59' W 090°24'0 0.0
2014-Jun-26 23:33N 29°59' W 090°24'0 0.0
2014-Jun-26 22:33N 29°59' W 090°24'6 1.0
2014-Jun-26 16:24N 30°03' W 090°30'10 2.6
2014-Jun-26 12:33N 30°02' W 090°42'0 0.0
2014-Jun-26 11:33N 30°02' W 090°42'0 0.0
2014-Jun-26 10:33N 30°02' W 090°42'0 0.0
2014-Jun-26 09:33N 30°02' W 090°42'0 0.0
2014-Jun-26 08:33N 30°02' W 090°42'0 0.0
2014-Jun-26 07:33N 30°02' W 090°42'0 0.0
2014-Jun-26 06:34N 30°02' W 090°42'0 0.4
2014-Jun-26 05:33N 30°02' W 090°42'7 7.2
2014-Jun-26 04:33N 30°00' W 090°50'0 0.1
2014-Jun-26 03:33N 30°01' W 090°50'0 0.0
2014-Jun-25 22:29N 30°01' W 090°50'0 0.0
2014-Jun-25 14:26N 30°01' W 090°50'0 0.0
2014-Jun-25 13:31N 30°01' W 090°50'0 0.0
2014-Jun-25 12:26N 30°01' W 090°50'0 0.0
2014-Jun-25 11:13N 30°01' W 090°50'0 0.0
2014-Jun-25 10:19N 30°01' W 090°50'0 0.0
2014-Jun-25 09:29N 30°01' W 090°50'0 0.0
2014-Jun-25 08:34N 30°01' W 090°50'0 0.0
2014-Jun-25 07:32N 30°01' W 090°50'2 2.0
2014-Jun-25 06:32N 29°59' W 090°48'6 6.3
2014-Jun-25 05:33N 30°02' W 090°42'6 5.8
2014-Jun-25 04:34N 30°03' W 090°35'6 5.9
2014-Jun-25 03:34N 30°02' W 090°28'4 4.3
2014-Jun-25 02:33N 29°59' W 090°24'0 0.0
2014-Jun-25 01:33N 29°59' W 090°24'0 0.0
2014-Jun-25 00:33N 29°59' W 090°24'0 0.0
2014-Jun-24 23:34N 29°59' W 090°24'0 0.0
2014-Jun-24 22:34N 29°59' W 090°24'0 0.0
2014-Jun-24 12:08N 29°59' W 090°24'0 0.0
2014-Jun-24 11:34N 29°59' W 090°24'0 0.0
2014-Jun-24 10:33N 29°59' W 090°24'0 0.0
2014-Jun-24 09:33N 29°59' W 090°24'0 0.0
2014-Jun-24 08:33N 29°59' W 090°24'0 0.0
2014-Jun-24 07:34N 29°59' W 090°24'0 0.0
2014-Jun-24 06:33N 29°59' W 090°24'0 0.0
2014-Jun-24 05:33N 29°59' W 090°24'0 0.0
2014-Jun-24 04:33N 29°59' W 090°24'0 0.0
2014-Jun-24 03:33N 29°59' W 090°24'0 0.0
2014-Jun-24 02:33N 29°59' W 090°24'0 0.0
2014-Jun-24 01:33N 29°59' W 090°24'0 0.0
2014-Jun-24 00:33N 29°59' W 090°24'0 0.0
2014-Jun-23 23:33N 29°59' W 090°24'0 0.0
2014-Jun-23 22:33N 29°59' W 090°24'8 4.2
2014-Jun-23 20:34N 30°03' W 090°33'15 1.5
2014-Jun-23 10:33N 30°01' W 090°50'0 0.0
2014-Jun-23 09:33N 30°01' W 090°50'0 0.0
2014-Jun-23 08:33N 30°01' W 090°50'0 0.0
2014-Jun-23 07:30N 30°01' W 090°50'0 0.0
2014-Jun-23 06:33N 30°01' W 090°50'0 0.0
2014-Jun-23 05:30N 30°01' W 090°50'0 0.0
2014-Jun-23 04:33N 30°01' W 090°50'0 0.0
2014-Jun-23 03:34N 30°01' W 090°50'5 0.5
2014-Jun-22 17:33N 30°01' W 090°44'6 6.0
2014-Jun-22 16:33N 30°02' W 090°38'6 6.4
2014-Jun-22 15:33N 30°03' W 090°30'5 5.5
2014-Jun-22 14:33N 29°60' W 090°25'1 1.0
2014-Jun-22 13:33N 29°59' W 090°24'0 0.0
2014-Jun-22 12:33N 29°59' W 090°24'0 0.0
2014-Jun-22 11:33N 29°59' W 090°24'0 0.0
2014-Jun-22 10:33N 29°59' W 090°24'0 0.0
2014-Jun-22 09:33N 29°59' W 090°24'0 0.0
2014-Jun-22 08:34N 29°59' W 090°24'0 0.0
2014-Jun-22 07:33N 29°59' W 090°24'0 0.0
2014-Jun-22 06:33N 29°59' W 090°24'0 0.0
2014-Jun-22 05:33N 29°59' W 090°24'0 0.0
2014-Jun-22 04:34N 29°59' W 090°24'0 0.0
2014-Jun-22 03:33N 29°59' W 090°24'0 0.0
2014-Jun-22 02:33N 29°59' W 090°24'0 0.0
2014-Jun-22 01:34N 29°59' W 090°24'0 0.0
2014-Jun-22 00:34N 29°59' W 090°24'0 0.0
2014-Jun-21 23:33N 29°59' W 090°24'0 0.0
2014-Jun-21 21:33N 29°59' W 090°24'0 0.0
2014-Jun-21 20:33N 29°59' W 090°24'0 0.0
2014-Jun-21 19:33N 29°59' W 090°24'0 0.0
2014-Jun-21 18:33N 29°59' W 090°24'0 0.4
2014-Jun-21 17:34N 29°60' W 090°25'8 7.5
2014-Jun-21 16:33N 30°03' W 090°33'15 5.1
2014-Jun-21 13:31N 30°01' W 090°50'0 0.0
2014-Jun-21 12:33N 30°01' W 090°50'  

Dump ship's entire track history